sensor_id;sensor_type;location;lat;lon;timestamp;pressure;altitude;pressure_sealevel;temperature;humidity
46379;BME280;32084;42.254;22.744;2023-08-07T00:00:57;94604.38;;;18.64;81.19
46379;BME280;32084;42.254;22.744;2023-08-07T00:03:23;94613.16;;;18.85;80.72
46379;BME280;32084;42.254;22.744;2023-08-07T00:05:49;94617.44;;;18.92;81.03
46379;BME280;32084;42.254;22.744;2023-08-07T00:08:17;94611.72;;;19.01;80.06
46379;BME280;32084;42.254;22.744;2023-08-07T00:10:43;94617.44;;;18.92;80.16
46379;BME280;32084;42.254;22.744;2023-08-07T00:13:09;94609.28;;;18.56;81.62
46379;BME280;32084;42.254;22.744;2023-08-07T00:15:37;94604.91;;;18.54;81.02
46379;BME280;32084;42.254;22.744;2023-08-07T00:18:04;94607.13;;;18.39;81.51
46379;BME280;32084;42.254;22.744;2023-08-07T00:20:30;94607.75;;;18.41;81.86
46379;BME280;32084;42.254;22.744;2023-08-07T00:22:56;94611.28;;;18.17;82.35
46379;BME280;32084;42.254;22.744;2023-08-07T00:25:22;94611.22;;;17.98;84.00
46379;BME280;32084;42.254;22.744;2023-08-07T00:27:48;94608.03;;;18.33;82.52
46379;BME280;32084;42.254;22.744;2023-08-07T00:30:14;94584.25;;;18.17;82.18
46379;BME280;32084;42.254;22.744;2023-08-07T00:32:40;94613.00;;;18.11;83.61
46379;BME280;32084;42.254;22.744;2023-08-07T00:35:06;94618.81;;;18.14;84.15
46379;BME280;32084;42.254;22.744;2023-08-07T00:37:34;94625.22;;;18.20;84.16
46379;BME280;32084;42.254;22.744;2023-08-07T00:40:00;94628.00;;;18.32;84.08
46379;BME280;32084;42.254;22.744;2023-08-07T00:42:25;94641.41;;;18.27;83.61
46379;BME280;32084;42.254;22.744;2023-08-07T00:44:51;94635.97;;;18.02;83.24
46379;BME280;32084;42.254;22.744;2023-08-07T00:47:17;94657.34;;;17.71;84.63
46379;BME280;32084;42.254;22.744;2023-08-07T00:49:43;94656.72;;;17.76;84.90
46379;BME280;32084;42.254;22.744;2023-08-07T00:52:09;94652.03;;;17.97;84.01
46379;BME280;32084;42.254;22.744;2023-08-07T00:54:35;94645.75;;;18.03;83.63
46379;BME280;32084;42.254;22.744;2023-08-07T00:57:07;94660.63;;;17.80;83.73
46379;BME280;32084;42.254;22.744;2023-08-07T00:59:35;94654.63;;;17.78;84.76
46379;BME280;32084;42.254;22.744;2023-08-07T01:02:01;94648.47;;;17.64;85.50
46379;BME280;32084;42.254;22.744;2023-08-07T01:04:27;94651.34;;;17.69;85.48
46379;BME280;32084;42.254;22.744;2023-08-07T01:06:54;94655.44;;;17.85;85.02
46379;BME280;32084;42.254;22.744;2023-08-07T01:09:20;94654.91;;;17.63;85.21
46379;BME280;32084;42.254;22.744;2023-08-07T01:11:56;94650.34;;;17.18;86.93
46379;BME280;32084;42.254;22.744;2023-08-07T01:17:11;94661.34;;;17.30;86.80
46379;BME280;32084;42.254;22.744;2023-08-07T01:19:40;94655.47;;;17.33;86.90
46379;BME280;32084;42.254;22.744;2023-08-07T01:22:10;94664.19;;;17.42;86.84
46379;BME280;32084;42.254;22.744;2023-08-07T01:24:37;94666.69;;;17.44;87.34
46379;BME280;32084;42.254;22.744;2023-08-07T01:34:58;94667.28;;;17.46;85.15
46379;BME280;32084;42.254;22.744;2023-08-07T01:37:26;94663.31;;;17.48;85.40
46379;BME280;32084;42.254;22.744;2023-08-07T01:39:54;94664.38;;;17.47;86.15
46379;BME280;32084;42.254;22.744;2023-08-07T01:42:21;94667.31;;;17.39;85.43
46379;BME280;32084;42.254;22.744;2023-08-07T01:44:47;94665.31;;;17.21;86.54
46379;BME280;32084;42.254;22.744;2023-08-07T01:47:13;94661.66;;;17.02;87.09
46379;BME280;32084;42.254;22.744;2023-08-07T01:49:39;94662.94;;;16.73;89.16
46379;BME280;32084;42.254;22.744;2023-08-07T01:52:06;94665.63;;;16.73;88.36
46379;BME280;32084;42.254;22.744;2023-08-07T01:54:32;94670.19;;;16.79;88.04
46379;BME280;32084;42.254;22.744;2023-08-07T01:56:58;94669.38;;;16.65;88.72
46379;BME280;32084;42.254;22.744;2023-08-07T01:59:24;94673.75;;;16.66;89.56
46379;BME280;32084;42.254;22.744;2023-08-07T02:01:50;94674.75;;;16.78;88.70
46379;BME280;32084;42.254;22.744;2023-08-07T02:04:16;94681.16;;;16.97;87.67
46379;BME280;32084;42.254;22.744;2023-08-07T02:06:42;94682.16;;;17.16;87.27
46379;BME280;32084;42.254;22.744;2023-08-07T02:09:08;94681.31;;;17.16;87.56
46379;BME280;32084;42.254;22.744;2023-08-07T02:11:34;94689.06;;;17.06;88.19
46379;BME280;32084;42.254;22.744;2023-08-07T02:14:00;94688.25;;;16.92;87.72
46379;BME280;32084;42.254;22.744;2023-08-07T02:16:26;94691.38;;;16.69;89.42
46379;BME280;32084;42.254;22.744;2023-08-07T02:18:52;94693.69;;;16.58;88.82
46379;BME280;32084;42.254;22.744;2023-08-07T02:21:18;94688.69;;;16.69;89.16
46379;BME280;32084;42.254;22.744;2023-08-07T02:23:44;94689.94;;;16.66;89.92
46379;BME280;32084;42.254;22.744;2023-08-07T02:26:10;94689.13;;;16.66;90.27
46379;BME280;32084;42.254;22.744;2023-08-07T02:28:36;94687.03;;;16.61;90.85
46379;BME280;32084;42.254;22.744;2023-08-07T02:31:01;94690.16;;;16.31;90.71
46379;BME280;32084;42.254;22.744;2023-08-07T02:33:27;94694.94;;;16.36;90.88
46379;BME280;32084;42.254;22.744;2023-08-07T02:35:56;94696.38;;;16.52;90.21
46379;BME280;32084;42.254;22.744;2023-08-07T02:38:22;94700.75;;;16.46;89.91
46379;BME280;32084;42.254;22.744;2023-08-07T02:40:48;94707.38;;;16.57;89.58
46379;BME280;32084;42.254;22.744;2023-08-07T02:43:14;94703.44;;;16.33;89.97
46379;BME280;32084;42.254;22.744;2023-08-07T02:45:40;94714.44;;;16.11;90.09
46379;BME280;32084;42.254;22.744;2023-08-07T02:48:06;94715.28;;;16.12;90.65
46379;BME280;32084;42.254;22.744;2023-08-07T02:50:32;94722.34;;;16.26;90.51
46379;BME280;32084;42.254;22.744;2023-08-07T02:52:59;94722.75;;;16.30;90.35
46379;BME280;32084;42.254;22.744;2023-08-07T02:55:25;94729.59;;;16.26;90.20
46379;BME280;32084;42.254;22.744;2023-08-07T02:57:50;94730.63;;;16.11;89.50
46379;BME280;32084;42.254;22.744;2023-08-07T03:00:17;94738.91;;;15.96;91.08
46379;BME280;32084;42.254;22.744;2023-08-07T03:02:42;94732.06;;;15.94;91.38
46379;BME280;32084;42.254;22.744;2023-08-07T03:05:08;94742.81;;;15.80;91.72
46379;BME280;32084;42.254;22.744;2023-08-07T03:07:34;94757.06;;;15.74;91.57
46379;BME280;32084;42.254;22.744;2023-08-07T03:10:00;94755.47;;;15.93;91.87
46379;BME280;32084;42.254;22.744;2023-08-07T03:12:26;94765.47;;;16.06;90.93
46379;BME280;32084;42.254;22.744;2023-08-07T03:14:52;94756.16;;;16.15;91.09
46379;BME280;32084;42.254;22.744;2023-08-07T03:17:18;94757.59;;;16.11;90.49
46379;BME280;32084;42.254;22.744;2023-08-07T03:19:46;94752.97;;;15.85;90.43
46379;BME280;32084;42.254;22.744;2023-08-07T03:22:12;94749.03;;;15.81;90.76
46379;BME280;32084;42.254;22.744;2023-08-07T03:24:38;94756.94;;;15.96;90.53
46379;BME280;32084;42.254;22.744;2023-08-07T03:27:04;94752.19;;;15.98;90.99
46379;BME280;32084;42.254;22.744;2023-08-07T03:29:30;94751.56;;;15.96;90.52
46379;BME280;32084;42.254;22.744;2023-08-07T03:31:56;94755.69;;;15.92;91.05
46379;BME280;32084;42.254;22.744;2023-08-07T03:34:22;94756.13;;;16.02;90.38
46379;BME280;32084;42.254;22.744;2023-08-07T03:36:48;94765.88;;;16.03;90.62
46379;BME280;32084;42.254;22.744;2023-08-07T03:39:14;94763.22;;;16.16;89.98
46379;BME280;32084;42.254;22.744;2023-08-07T03:41:40;94771.69;;;16.20;89.45
46379;BME280;32084;42.254;22.744;2023-08-07T03:44:06;94766.50;;;16.12;91.58
46379;BME280;32084;42.254;22.744;2023-08-07T03:46:32;94775.00;;;15.95;92.44
46379;BME280;32084;42.254;22.744;2023-08-07T03:48:58;94771.25;;;15.90;92.76
46379;BME280;32084;42.254;22.744;2023-08-07T03:51:24;94773.34;;;16.08;92.80
46379;BME280;32084;42.254;22.744;2023-08-07T03:53:50;94785.44;;;16.32;92.64
46379;BME280;32084;42.254;22.744;2023-08-07T03:56:16;94771.31;;;16.36;92.22
46379;BME280;32084;42.254;22.744;2023-08-07T03:58:42;94776.13;;;16.54;92.16
46379;BME280;32084;42.254;22.744;2023-08-07T04:01:08;94777.75;;;16.69;92.52
46379;BME280;32084;42.254;22.744;2023-08-07T04:03:34;94779.22;;;16.78;92.91
46379;BME280;32084;42.254;22.744;2023-08-07T04:06:00;94781.09;;;16.84;93.75
46379;BME280;32084;42.254;22.744;2023-08-07T04:08:27;94781.50;;;17.08;92.25
46379;BME280;32084;42.254;22.744;2023-08-07T04:11:05;94781.44;;;17.34;92.68
46379;BME280;32084;42.254;22.744;2023-08-07T04:13:31;94787.63;;;17.55;90.88
46379;BME280;32084;42.254;22.744;2023-08-07T04:15:58;94791.50;;;17.72;90.82
46379;BME280;32084;42.254;22.744;2023-08-07T04:18:24;94799.78;;;17.91;91.89
46379;BME280;32084;42.254;22.744;2023-08-07T04:20:50;94799.41;;;18.19;89.45
46379;BME280;32084;42.254;22.744;2023-08-07T04:23:17;94803.66;;;18.40;87.20
46379;BME280;32084;42.254;22.744;2023-08-07T04:25:42;94800.00;;;18.60;88.55
46379;BME280;32084;42.254;22.744;2023-08-07T04:28:08;94801.31;;;18.76;87.22
46379;BME280;32084;42.254;22.744;2023-08-07T04:30:34;94809.75;;;18.92;86.56
46379;BME280;32084;42.254;22.744;2023-08-07T04:33:00;94802.81;;;19.03;84.28
46379;BME280;32084;42.254;22.744;2023-08-07T04:35:26;94796.47;;;19.09;83.22
46379;BME280;32084;42.254;22.744;2023-08-07T04:37:52;94803.94;;;19.14;83.88
46379;BME280;32084;42.254;22.744;2023-08-07T04:40:18;94794.31;;;19.18;82.01
46379;BME280;32084;42.254;22.744;2023-08-07T04:42:44;94802.88;;;19.15;82.13
46379;BME280;32084;42.254;22.744;2023-08-07T04:45:10;94798.19;;;19.04;84.28
46379;BME280;32084;42.254;22.744;2023-08-07T04:47:36;94807.75;;;19.06;81.85
46379;BME280;32084;42.254;22.744;2023-08-07T04:50:02;94807.41;;;19.21;80.68
46379;BME280;32084;42.254;22.744;2023-08-07T04:52:28;94810.34;;;19.20;82.91
46379;BME280;32084;42.254;22.744;2023-08-07T04:54:54;94807.53;;;19.08;82.38
46379;BME280;32084;42.254;22.744;2023-08-07T04:57:20;94817.94;;;19.11;81.24
46379;BME280;32084;42.254;22.744;2023-08-07T04:59:46;94823.34;;;19.11;83.06
46379;BME280;32084;42.254;22.744;2023-08-07T05:02:12;94811.03;;;19.15;82.85
46379;BME280;32084;42.254;22.744;2023-08-07T05:04:38;94817.47;;;19.39;83.49
46379;BME280;32084;42.254;22.744;2023-08-07T05:07:04;94809.41;;;19.51;80.72
46379;BME280;32084;42.254;22.744;2023-08-07T05:09:30;94814.09;;;19.62;80.00
46379;BME280;32084;42.254;22.744;2023-08-07T05:11:56;94813.38;;;19.74;79.28
46379;BME280;32084;42.254;22.744;2023-08-07T05:14:22;94813.22;;;19.87;77.80
46379;BME280;32084;42.254;22.744;2023-08-07T05:16:48;94806.69;;;20.06;76.29
46379;BME280;32084;42.254;22.744;2023-08-07T05:19:14;94809.94;;;20.15;76.37
46379;BME280;32084;42.254;22.744;2023-08-07T05:21:40;94811.34;;;20.18;75.04
46379;BME280;32084;42.254;22.744;2023-08-07T05:24:06;94811.72;;;20.21;74.39
46379;BME280;32084;42.254;22.744;2023-08-07T05:26:32;94811.34;;;20.18;75.00
46379;BME280;32084;42.254;22.744;2023-08-07T05:28:58;94805.72;;;20.01;76.38
46379;BME280;32084;42.254;22.744;2023-08-07T05:31:24;94808.53;;;19.76;76.53
46379;BME280;32084;42.254;22.744;2023-08-07T05:33:50;94804.81;;;19.51;79.80
46379;BME280;32084;42.254;22.744;2023-08-07T05:36:16;94812.41;;;19.61;79.97
46379;BME280;32084;42.254;22.744;2023-08-07T05:38:42;94801.59;;;19.80;77.85
46379;BME280;32084;42.254;22.744;2023-08-07T05:41:08;94805.94;;;20.18;76.61
46379;BME280;32084;42.254;22.744;2023-08-07T05:43:34;94803.22;;;20.48;74.69
46379;BME280;32084;42.254;22.744;2023-08-07T05:46:00;94798.34;;;20.69;73.68
46379;BME280;32084;42.254;22.744;2023-08-07T05:48:26;94800.25;;;20.68;74.77
46379;BME280;32084;42.254;22.744;2023-08-07T05:50:52;94801.19;;;20.74;73.76
46379;BME280;32084;42.254;22.744;2023-08-07T05:53:19;94798.94;;;20.82;73.50
46379;BME280;32084;42.254;22.744;2023-08-07T05:55:45;94808.78;;;20.83;74.99
46379;BME280;32084;42.254;22.744;2023-08-07T05:58:11;94799.31;;;20.86;72.06
46379;BME280;32084;42.254;22.744;2023-08-07T06:00:37;94800.06;;;21.17;72.77
46379;BME280;32084;42.254;22.744;2023-08-07T06:03:03;94803.03;;;21.51;71.78
46379;BME280;32084;42.254;22.744;2023-08-07T06:05:29;94809.88;;;21.77;69.04
46379;BME280;32084;42.254;22.744;2023-08-07T06:07:55;94808.97;;;21.59;70.66
46379;BME280;32084;42.254;22.744;2023-08-07T06:10:21;94809.78;;;21.36;68.94
46379;BME280;32084;42.254;22.744;2023-08-07T06:12:47;94810.34;;;21.62;71.43
46379;BME280;32084;42.254;22.744;2023-08-07T06:15:13;94813.91;;;21.62;68.58
46379;BME280;32084;42.254;22.744;2023-08-07T06:17:39;94826.69;;;21.50;71.71
46379;BME280;32084;42.254;22.744;2023-08-07T06:20:07;94817.69;;;21.61;70.54
46379;BME280;32084;42.254;22.744;2023-08-07T06:22:34;94822.28;;;21.84;70.76
46379;BME280;32084;42.254;22.744;2023-08-07T06:25:00;94823.28;;;22.07;71.65
46379;BME280;32084;42.254;22.744;2023-08-07T06:27:26;94821.50;;;22.13;69.21
46379;BME280;32084;42.254;22.744;2023-08-07T06:29:53;94831.81;;;22.51;70.04
46379;BME280;32084;42.254;22.744;2023-08-07T06:32:19;94824.84;;;22.44;67.19
46379;BME280;32084;42.254;22.744;2023-08-07T06:34:45;94824.16;;;22.36;68.88
46379;BME280;32084;42.254;22.744;2023-08-07T06:37:12;94821.34;;;22.60;69.54
46379;BME280;32084;42.254;22.744;2023-08-07T06:39:38;94813.31;;;22.53;68.64
46379;BME280;32084;42.254;22.744;2023-08-07T06:42:04;94819.75;;;22.93;67.71
46379;BME280;32084;42.254;22.744;2023-08-07T06:44:30;94819.84;;;22.98;66.11
46379;BME280;32084;42.254;22.744;2023-08-07T06:46:56;94828.31;;;23.13;64.07
46379;BME280;32084;42.254;22.744;2023-08-07T06:49:22;94821.19;;;23.29;65.33
46379;BME280;32084;42.254;22.744;2023-08-07T06:51:50;94827.41;;;23.25;65.21
46379;BME280;32084;42.254;22.744;2023-08-07T06:54:16;94821.75;;;23.48;65.46
46379;BME280;32084;42.254;22.744;2023-08-07T06:56:42;94828.97;;;23.37;63.33
46379;BME280;32084;42.254;22.744;2023-08-07T06:59:09;94820.81;;;23.59;63.59
46379;BME280;32084;42.254;22.744;2023-08-07T07:01:35;94831.50;;;23.44;62.28
46379;BME280;32084;42.254;22.744;2023-08-07T07:04:01;94833.91;;;23.41;61.69
46379;BME280;32084;42.254;22.744;2023-08-07T07:06:27;94833.19;;;23.28;64.83
46379;BME280;32084;42.254;22.744;2023-08-07T07:08:53;94826.81;;;23.56;62.09
46379;BME280;32084;42.254;22.744;2023-08-07T07:11:20;94832.72;;;23.70;64.19
46379;BME280;32084;42.254;22.744;2023-08-07T07:13:48;94819.59;;;24.06;63.80
46379;BME280;32084;42.254;22.744;2023-08-07T07:16:15;94815.38;;;24.21;59.04
46379;BME280;32084;42.254;22.744;2023-08-07T07:18:41;94814.50;;;24.37;61.30
46379;BME280;32084;42.254;22.744;2023-08-07T07:21:07;94809.91;;;24.43;60.74
46379;BME280;32084;42.254;22.744;2023-08-07T07:23:33;94818.56;;;24.57;62.12
46379;BME280;32084;42.254;22.744;2023-08-07T07:25:59;94810.63;;;24.11;58.36
46379;BME280;32084;42.254;22.744;2023-08-07T07:28:25;94804.25;;;24.05;60.70
46379;BME280;32084;42.254;22.744;2023-08-07T07:30:51;94804.34;;;24.10;60.13
46379;BME280;32084;42.254;22.744;2023-08-07T07:33:17;94813.09;;;24.12;58.22
46379;BME280;32084;42.254;22.744;2023-08-07T07:35:43;94809.91;;;24.21;59.02
46379;BME280;32084;42.254;22.744;2023-08-07T07:38:09;94810.56;;;24.28;55.51
46379;BME280;32084;42.254;22.744;2023-08-07T07:40:36;94817.28;;;24.20;55.66
46379;BME280;32084;42.254;22.744;2023-08-07T07:43:02;94809.25;;;24.30;58.96
46379;BME280;32084;42.254;22.744;2023-08-07T07:45:28;94810.22;;;24.24;57.82
46379;BME280;32084;42.254;22.744;2023-08-07T07:47:55;94816.47;;;24.42;57.00
46379;BME280;32084;42.254;22.744;2023-08-07T07:50:21;94802.78;;;24.91;56.89
46379;BME280;32084;42.254;22.744;2023-08-07T07:52:47;94807.22;;;25.02;58.51
46379;BME280;32084;42.254;22.744;2023-08-07T07:55:13;94806.38;;;25.24;57.30
46379;BME280;32084;42.254;22.744;2023-08-07T07:57:39;94797.47;;;25.44;57.35
46379;BME280;32084;42.254;22.744;2023-08-07T08:00:06;94806.69;;;25.32;56.20
46379;BME280;32084;42.254;22.744;2023-08-07T08:02:36;94796.59;;;25.33;56.83
46379;BME280;32084;42.254;22.744;2023-08-07T08:05:02;94795.88;;;25.48;55.37
46379;BME280;32084;42.254;22.744;2023-08-07T08:07:28;94793.53;;;25.67;56.53
46379;BME280;32084;42.254;22.744;2023-08-07T08:09:54;94785.03;;;25.63;54.57
46379;BME280;32084;42.254;22.744;2023-08-07T08:12:23;94792.38;;;25.58;54.91
46379;BME280;32084;42.254;22.744;2023-08-07T08:14:49;94779.38;;;25.38;53.74
46379;BME280;32084;42.254;22.744;2023-08-07T08:17:15;94783.00;;;25.48;55.99
46379;BME280;32084;42.254;22.744;2023-08-07T08:19:41;94776.78;;;25.58;56.46
46379;BME280;32084;42.254;22.744;2023-08-07T08:22:07;94781.91;;;25.44;53.42
46379;BME280;32084;42.254;22.744;2023-08-07T08:24:33;94778.56;;;25.37;56.83
46379;BME280;32084;42.254;22.744;2023-08-07T08:26:59;94774.00;;;25.53;56.88
46379;BME280;32084;42.254;22.744;2023-08-07T08:29:25;94761.97;;;25.54;56.51
46379;BME280;32084;42.254;22.744;2023-08-07T08:31:53;94759.34;;;25.75;54.72
46379;BME280;32084;42.254;22.744;2023-08-07T08:34:20;94751.84;;;25.55;55.73
46379;BME280;32084;42.254;22.744;2023-08-07T08:36:47;94753.31;;;25.73;57.24
46379;BME280;32084;42.254;22.744;2023-08-07T08:39:13;94760.94;;;25.70;51.43
46379;BME280;32084;42.254;22.744;2023-08-07T08:41:40;94738.81;;;25.77;51.91
46379;BME280;32084;42.254;22.744;2023-08-07T08:44:08;94748.63;;;26.31;53.47
46379;BME280;32084;42.254;22.744;2023-08-07T08:46:35;94743.09;;;26.05;49.62
46379;BME280;32084;42.254;22.744;2023-08-07T08:49:02;94747.22;;;26.13;53.23
46379;BME280;32084;42.254;22.744;2023-08-07T08:51:29;94746.34;;;26.02;55.06
46379;BME280;32084;42.254;22.744;2023-08-07T08:53:55;94746.13;;;26.14;52.38
46379;BME280;32084;42.254;22.744;2023-08-07T08:56:22;94746.28;;;26.65;49.93
46379;BME280;32084;42.254;22.744;2023-08-07T08:58:50;94742.47;;;27.02;51.41
46379;BME280;32084;42.254;22.744;2023-08-07T09:01:16;94745.47;;;26.96;51.27
46379;BME280;32084;42.254;22.744;2023-08-07T09:03:43;94745.16;;;26.56;50.32
46379;BME280;32084;42.254;22.744;2023-08-07T09:06:11;94747.84;;;26.36;52.48
46379;BME280;32084;42.254;22.744;2023-08-07T09:08:40;94750.03;;;26.39;50.25
46379;BME280;32084;42.254;22.744;2023-08-07T09:11:06;94747.03;;;26.56;47.81
46379;BME280;32084;42.254;22.744;2023-08-07T09:13:33;94754.75;;;26.59;47.84
46379;BME280;32084;42.254;22.744;2023-08-07T09:16:01;94751.09;;;26.33;50.05
46379;BME280;32084;42.254;22.744;2023-08-07T09:18:28;94751.22;;;26.74;48.74
46379;BME280;32084;42.254;22.744;2023-08-07T09:20:54;94750.97;;;27.11;48.79
46379;BME280;32084;42.254;22.744;2023-08-07T09:23:22;94754.28;;;27.13;48.59
46379;BME280;32084;42.254;22.744;2023-08-07T09:25:58;94748.19;;;26.65;49.48
46379;BME280;32084;42.254;22.744;2023-08-07T09:28:24;94752.22;;;26.32;49.98
46379;BME280;32084;42.254;22.744;2023-08-07T09:30:52;94740.75;;;26.55;50.25
46379;BME280;32084;42.254;22.744;2023-08-07T09:33:25;94750.66;;;26.66;49.30
46379;BME280;32084;42.254;22.744;2023-08-07T09:35:51;94746.59;;;27.00;49.86
46379;BME280;32084;42.254;22.744;2023-08-07T09:38:17;94748.22;;;27.21;49.68
46379;BME280;32084;42.254;22.744;2023-08-07T09:40:43;94750.69;;;26.82;49.06
46379;BME280;32084;42.254;22.744;2023-08-07T09:43:09;94755.63;;;27.11;46.56
46379;BME280;32084;42.254;22.744;2023-08-07T09:45:36;94744.66;;;27.21;49.24
46379;BME280;32084;42.254;22.744;2023-08-07T09:48:05;94751.78;;;27.12;47.32
46379;BME280;32084;42.254;22.744;2023-08-07T09:50:37;94744.94;;;27.24;49.41
46379;BME280;32084;42.254;22.744;2023-08-07T09:53:02;94740.81;;;27.22;50.83
46379;BME280;32084;42.254;22.744;2023-08-07T09:55:28;94729.00;;;27.32;49.98
46379;BME280;32084;42.254;22.744;2023-08-07T09:57:54;94732.28;;;27.54;48.78
46379;BME280;32084;42.254;22.744;2023-08-07T10:00:20;94733.03;;;27.80;48.88
46379;BME280;32084;42.254;22.744;2023-08-07T10:02:47;94740.22;;;27.51;45.30
46379;BME280;32084;42.254;22.744;2023-08-07T10:05:14;94724.28;;;27.63;47.98
46379;BME280;32084;42.254;22.744;2023-08-07T10:07:40;94729.53;;;27.54;48.07
46379;BME280;32084;42.254;22.744;2023-08-07T10:10:07;94725.97;;;27.54;50.01
46379;BME280;32084;42.254;22.744;2023-08-07T10:12:33;94728.19;;;27.36;48.23
46379;BME280;32084;42.254;22.744;2023-08-07T10:14:59;94724.06;;;27.39;46.89
46379;BME280;32084;42.254;22.744;2023-08-07T10:17:26;94725.16;;;27.43;49.44
46379;BME280;32084;42.254;22.744;2023-08-07T10:19:53;94721.78;;;27.77;48.18
46379;BME280;32084;42.254;22.744;2023-08-07T10:22:19;94714.94;;;27.74;50.25
46379;BME280;32084;42.254;22.744;2023-08-07T10:24:48;94712.56;;;27.26;49.68
46379;BME280;32084;42.254;22.744;2023-08-07T10:27:15;94721.91;;;27.00;48.62
46379;BME280;32084;42.254;22.744;2023-08-07T10:29:42;94719.13;;;26.90;47.99
46379;BME280;32084;42.254;22.744;2023-08-07T10:32:09;94718.88;;;26.91;49.66
46379;BME280;32084;42.254;22.744;2023-08-07T10:34:39;94725.16;;;26.76;48.11
46379;BME280;32084;42.254;22.744;2023-08-07T10:37:08;94713.06;;;26.46;48.27
46379;BME280;32084;42.254;22.744;2023-08-07T10:39:34;94715.50;;;26.48;48.87
46379;BME280;32084;42.254;22.744;2023-08-07T10:42:01;94706.50;;;26.53;47.57
46379;BME280;32084;42.254;22.744;2023-08-07T10:44:30;94711.75;;;27.05;48.77
46379;BME280;32084;42.254;22.744;2023-08-07T10:46:59;94699.06;;;27.51;48.55
46379;BME280;32084;42.254;22.744;2023-08-07T10:49:36;94702.81;;;27.80;48.10
46379;BME280;32084;42.254;22.744;2023-08-07T10:52:12;94697.72;;;28.18;46.87
46379;BME280;32084;42.254;22.744;2023-08-07T10:54:39;94692.13;;;28.39;47.29
46379;BME280;32084;42.254;22.744;2023-08-07T10:57:12;94690.97;;;28.45;47.50
46379;BME280;32084;42.254;22.744;2023-08-07T10:59:48;94682.75;;;28.40;48.26
46379;BME280;32084;42.254;22.744;2023-08-07T11:02:21;94687.94;;;27.87;48.72
46379;BME280;32084;42.254;22.744;2023-08-07T11:04:48;94695.44;;;27.65;47.84
46379;BME280;32084;42.254;22.744;2023-08-07T11:07:36;94685.66;;;27.08;49.85
46379;BME280;32084;42.254;22.744;2023-08-07T11:10:01;94679.66;;;27.06;50.48
46379;BME280;32084;42.254;22.744;2023-08-07T11:12:27;94674.69;;;27.08;50.01
46379;BME280;32084;42.254;22.744;2023-08-07T11:14:54;94671.94;;;27.18;50.15
46379;BME280;32084;42.254;22.744;2023-08-07T11:17:26;94688.13;;;27.20;48.99
46379;BME280;32084;42.254;22.744;2023-08-07T11:19:53;94680.44;;;27.22;48.72
46379;BME280;32084;42.254;22.744;2023-08-07T11:22:20;94673.31;;;27.11;49.46
46379;BME280;32084;42.254;22.744;2023-08-07T11:24:46;94673.88;;;26.97;50.34
46379;BME280;32084;42.254;22.744;2023-08-07T11:27:12;94672.53;;;26.74;49.67
46379;BME280;32084;42.254;22.744;2023-08-07T11:29:38;94661.00;;;26.82;49.44
46379;BME280;32084;42.254;22.744;2023-08-07T11:32:05;94664.84;;;26.61;51.52
46379;BME280;32084;42.254;22.744;2023-08-07T11:34:31;94662.91;;;26.41;52.80
46379;BME280;32084;42.254;22.744;2023-08-07T11:36:57;94658.22;;;26.26;53.37
46379;BME280;32084;42.254;22.744;2023-08-07T11:39:23;94654.94;;;26.39;54.11
46379;BME280;32084;42.254;22.744;2023-08-07T11:41:50;94644.81;;;26.45;56.63
46379;BME280;32084;42.254;22.744;2023-08-07T11:44:18;94656.88;;;26.49;53.93
46379;BME280;32084;42.254;22.744;2023-08-07T11:46:44;94662.91;;;26.56;54.51
46379;BME280;32084;42.254;22.744;2023-08-07T11:49:10;94652.81;;;26.62;52.29
46379;BME280;32084;42.254;22.744;2023-08-07T11:51:37;94655.53;;;26.67;51.74
46379;BME280;32084;42.254;22.744;2023-08-07T11:54:03;94654.44;;;26.68;50.93
46379;BME280;32084;42.254;22.744;2023-08-07T11:56:29;94646.75;;;26.65;51.04
46379;BME280;32084;42.254;22.744;2023-08-07T11:58:56;94651.66;;;26.53;55.28
46379;BME280;32084;42.254;22.744;2023-08-07T12:01:23;94642.06;;;26.50;52.50
46379;BME280;32084;42.254;22.744;2023-08-07T12:03:56;94642.88;;;26.40;55.22
46379;BME280;32084;42.254;22.744;2023-08-07T12:06:23;94632.22;;;26.54;54.24
46379;BME280;32084;42.254;22.744;2023-08-07T12:08:50;94637.19;;;26.67;52.77
46379;BME280;32084;42.254;22.744;2023-08-07T12:11:19;94625.91;;;26.84;53.39
46379;BME280;32084;42.254;22.744;2023-08-07T12:13:46;94625.59;;;27.01;52.47
46379;BME280;32084;42.254;22.744;2023-08-07T12:16:13;94616.81;;;26.99;53.68
46379;BME280;32084;42.254;22.744;2023-08-07T12:18:51;94620.09;;;27.12;53.01
46379;BME280;32084;42.254;22.744;2023-08-07T12:21:18;94614.63;;;27.12;53.22
46379;BME280;32084;42.254;22.744;2023-08-07T12:23:48;94617.63;;;27.10;53.32
46379;BME280;32084;42.254;22.744;2023-08-07T12:26:15;94620.09;;;27.06;53.78
46379;BME280;32084;42.254;22.744;2023-08-07T12:28:41;94611.91;;;26.96;52.90
46379;BME280;32084;42.254;22.744;2023-08-07T12:31:07;94621.50;;;27.09;50.47
46379;BME280;32084;42.254;22.744;2023-08-07T12:33:33;94619.56;;;27.04;53.31
46379;BME280;32084;42.254;22.744;2023-08-07T12:35:59;94612.19;;;26.90;53.90
46379;BME280;32084;42.254;22.744;2023-08-07T12:38:26;94605.06;;;26.78;55.24
46379;BME280;32084;42.254;22.744;2023-08-07T12:40:52;94609.72;;;26.88;54.36
46379;BME280;32084;42.254;22.744;2023-08-07T12:43:18;94613.00;;;27.05;52.02
46379;BME280;32084;42.254;22.744;2023-08-07T12:45:44;94611.88;;;27.06;53.44
46379;BME280;32084;42.254;22.744;2023-08-07T12:48:10;94608.91;;;26.98;53.14
46379;BME280;32084;42.254;22.744;2023-08-07T12:50:36;94609.72;;;26.88;53.16
46379;BME280;32084;42.254;22.744;2023-08-07T12:53:03;94614.94;;;26.79;54.19
46379;BME280;32084;42.254;22.744;2023-08-07T12:55:29;94612.47;;;26.78;53.91
46379;BME280;32084;42.254;22.744;2023-08-07T12:57:55;94609.44;;;26.95;51.98